Time;durP1;ratioP1;P1;durP2;ratioP2;P2;SDS_P1;SDS_P2;PMS_P1;PMS_P2;Temp;Humidity;BMP_temperature;BMP_pressure;BME280_temperature;BME280_humidity;BME280_pressure;Samples;Min_cycle;Max_cycle;Signal;HPM_P1;HPM_P2
2023/03/14 00:02:16;;;;;;;7.45;1.00;;;;;;;;;;5093957;28;20020;-56
2023/03/14 00:04:42;;;;;;;3.50;0.70;;;;;;;;;;5092364;28;20024;-55
2023/03/14 00:07:07;;;;;;;5.18;0.95;;;;;;;;;;5092100;28;20020;-56
2023/03/14 00:09:33;;;;;;;1.20;0.70;;;;;;;;;;5093482;28;20052;-57
2023/03/14 00:11:58;;;;;;;5.63;1.27;;;;;;;;;;5093291;28;20027;-57
2023/03/14 00:14:23;;;;;;;5.93;0.80;;;;;;;;;;5093359;28;20085;-56
2023/03/14 00:16:49;;;;;;;6.20;1.25;;;;;;;;;;5092884;28;20534;-57
2023/03/14 00:19:14;;;;;;;2.55;0.82;;;;;;;;;;5093206;28;20048;-56
2023/03/14 00:21:41;;;;;;;6.35;1.00;;;;;;;;;;5093348;28;20020;-56
2023/03/14 00:24:08;;;;;;;2.40;0.70;;;;;;;;;;5091819;28;20566;-57
2023/03/14 00:26:33;;;;;;;4.10;0.70;;;;;;;;;;5092960;28;20457;-57
2023/03/14 00:28:59;;;;;;;3.45;0.70;;;;;;;;;;5091692;28;20046;-56
2023/03/14 00:31:24;;;;;;;5.22;0.80;;;;;;;;;;5092930;28;20021;-55
2023/03/14 00:33:51;;;;;;;9.63;1.17;;;;;;;;;;5091999;28;20016;-55
2023/03/14 00:36:17;;;;;;;4.68;1.10;;;;;;;;;;5091692;28;20036;-57
2023/03/14 00:38:43;;;;;;;8.40;1.05;;;;;;;;;;5093069;28;20088;-58
2023/03/14 00:41:10;;;;;;;2.85;0.88;;;;;;;;;;5092345;28;20020;-56
2023/03/14 00:43:35;;;;;;;7.00;0.80;;;;;;;;;;5092730;28;20461;-55
2023/03/14 00:46:01;;;;;;;2.03;0.55;;;;;;;;;;5092758;28;20016;-55
2023/03/14 00:48:26;;;;;;;3.75;0.70;;;;;;;;;;5093102;28;20091;-55
2023/03/14 00:50:52;;;;;;;4.40;0.70;;;;;;;;;;5092689;28;20027;-55
2023/03/14 00:53:17;;;;;;;5.07;1.45;;;;;;;;;;5091275;28;20016;-56
2023/03/14 00:55:43;;;;;;;4.22;0.75;;;;;;;;;;5091286;28;20044;-56
2023/03/14 00:58:12;;;;;;;11.02;1.13;;;;;;;;;;5092854;28;20024;-55
2023/03/14 01:00:38;;;;;;;6.50;0.60;;;;;;;;;;5092722;28;20023;-57
2023/03/14 01:03:04;;;;;;;3.53;0.70;;;;;;;;;;5092519;28;20016;-55
2023/03/14 01:05:29;;;;;;;3.58;0.50;;;;;;;;;;5093062;28;20457;-57
2023/03/14 01:07:55;;;;;;;5.07;0.65;;;;;;;;;;5093076;28;20023;-57
2023/03/14 01:10:20;;;;;;;5.57;0.50;;;;;;;;;;5093041;28;20012;-56
2023/03/14 01:12:46;;;;;;;5.28;0.70;;;;;;;;;;5093475;28;20025;-54
2023/03/14 01:15:12;;;;;;;4.70;0.70;;;;;;;;;;5090909;28;20016;-55
2023/03/14 01:17:39;;;;;;;4.32;0.80;;;;;;;;;;5091384;28;20127;-55
2023/03/14 01:20:06;;;;;;;6.82;1.15;;;;;;;;;;5091318;28;20020;-56
2023/03/14 01:22:31;;;;;;;3.95;0.70;;;;;;;;;;5092424;28;20068;-58
2023/03/14 01:24:56;;;;;;;2.22;0.50;;;;;;;;;;5090771;28;20493;-60
2023/03/14 01:27:22;;;;;;;4.03;0.60;;;;;;;;;;5091397;28;20028;-55
2023/03/14 01:29:47;;;;;;;3.55;0.52;;;;;;;;;;5091291;28;20484;-55
2023/03/14 01:32:13;;;;;;;4.88;0.50;;;;;;;;;;5092461;28;20015;-56
2023/03/14 01:34:38;;;;;;;2.55;0.45;;;;;;;;;;5092309;28;20099;-55
2023/03/14 01:37:04;;;;;;;2.85;0.55;;;;;;;;;;5090645;28;20039;-56
2023/03/14 01:39:29;;;;;;;2.78;0.40;;;;;;;;;;5092468;28;20048;-56
2023/03/14 01:41:54;;;;;;;2.45;0.50;;;;;;;;;;5092388;28;20016;-55
2023/03/14 01:44:20;;;;;;;1.92;0.38;;;;;;;;;;5095951;28;20016;-56
2023/03/14 01:46:46;;;;;;;3.53;0.70;;;;;;;;;;5094633;28;20099;-56
2023/03/14 01:49:20;;;;;;;5.30;0.88;;;;;;;;;;5096006;28;20016;-57
2023/03/14 01:51:58;;;;;;;2.85;0.40;;;;;;;;;;5094592;28;20024;-56
2023/03/14 01:54:29;;;;;;;2.75;1.05;;;;;;;;;;5094842;28;20490;-55
2023/03/14 01:57:03;;;;;;;2.33;0.28;;;;;;;;;;5094548;28;20052;-55
2023/03/14 01:59:30;;;;;;;3.65;0.90;;;;;;;;;;5094971;28;20020;-55
2023/03/14 02:01:55;;;;;;;3.97;0.20;;;;;;;;;;5095237;28;20080;-56
2023/03/14 02:04:21;;;;;;;1.77;0.43;;;;;;;;;;5095750;28;20414;-55
2023/03/14 02:06:49;;;;;;;4.22;0.70;;;;;;;;;;5095944;28;20028;-55
2023/03/14 02:09:15;;;;;;;2.70;0.52;;;;;;;;;;5094281;28;20019;-56
2023/03/14 02:11:40;;;;;;;2.50;0.40;;;;;;;;;;5097017;28;20020;-58
2023/03/14 02:14:07;;;;;;;1.13;0.30;;;;;;;;;;5097446;28;20513;-56
2023/03/14 02:16:34;;;;;;;3.65;0.60;;;;;;;;;;5097267;28;20046;-57
2023/03/14 02:18:59;;;;;;;4.47;0.30;;;;;;;;;;5094996;28;20429;-57
2023/03/14 02:21:24;;;;;;;4.68;0.73;;;;;;;;;;5096207;28;20012;-56
2023/03/14 02:24:08;;;;;;;3.33;0.38;;;;;;;;;;5096206;28;20091;-57
2023/03/14 02:26:38;;;;;;;2.47;0.40;;;;;;;;;;5097288;28;20026;-56
2023/03/14 02:29:03;;;;;;;3.40;0.45;;;;;;;;;;5095340;28;20016;-57
2023/03/14 02:31:29;;;;;;;3.72;0.50;;;;;;;;;;5095249;28;20020;-56
2023/03/14 02:33:55;;;;;;;3.42;0.60;;;;;;;;;;5093979;28;20016;-60
2023/03/14 02:36:20;;;;;;;2.90;0.40;;;;;;;;;;5096320;28;20503;-57
2023/03/14 02:38:46;;;;;;;2.58;0.40;;;;;;;;;;5095449;28;20092;-57
2023/03/14 02:41:11;;;;;;;2.75;0.75;;;;;;;;;;5096195;28;20023;-57
2023/03/14 02:43:36;;;;;;;3.15;0.50;;;;;;;;;;5094786;28;20032;-56
2023/03/14 02:46:03;;;;;;;1.83;0.32;;;;;;;;;;5094932;28;20016;-56
2023/03/14 02:48:52;;;;;;;7.03;1.40;;;;;;;;;;5095158;28;20461;-56
2023/03/14 02:51:17;;;;;;;5.10;0.63;;;;;;;;;;5082268;28;20028;-56
2023/03/14 02:53:43;;;;;;;4.15;1.05;;;;;;;;;;5094726;28;20023;-56
2023/03/14 02:56:09;;;;;;;3.55;0.40;;;;;;;;;;5092638;28;20178;-56
2023/03/14 02:58:34;;;;;;;1.75;0.40;;;;;;;;;;5093548;28;20115;-56
2023/03/14 03:01:00;;;;;;;4.53;0.57;;;;;;;;;;5093451;28;20393;-57
2023/03/14 03:03:25;;;;;;;4.78;0.68;;;;;;;;;;5094590;28;20027;-57
2023/03/14 03:05:51;;;;;;;5.93;0.60;;;;;;;;;;5096537;28;20061;-60
2023/03/14 03:08:18;;;;;;;5.07;0.40;;;;;;;;;;5095912;28;20020;-61
2023/03/14 03:10:43;;;;;;;1.60;0.40;;;;;;;;;;5094786;28;20020;-59
2023/03/14 03:13:09;;;;;;;2.15;0.55;;;;;;;;;;5094590;28;20020;-57
2023/03/14 03:15:34;;;;;;;2.10;0.60;;;;;;;;;;5094545;28;20023;-57
2023/03/14 03:18:00;;;;;;;2.85;0.77;;;;;;;;;;5094131;28;20488;-57
2023/03/14 03:20:25;;;;;;;1.95;0.22;;;;;;;;;;5094758;28;20036;-56
2023/03/14 03:22:51;;;;;;;1.85;0.30;;;;;;;;;;5094227;28;20052;-56
2023/03/14 03:25:16;;;;;;;3.13;0.20;;;;;;;;;;5094082;28;20023;-54
2023/03/14 03:27:42;;;;;;;1.83;0.32;;;;;;;;;;5092894;28;20115;-55
2023/03/14 03:30:09;;;;;;;1.73;0.10;;;;;;;;;;5093005;28;20027;-55
2023/03/14 03:32:35;;;;;;;1.88;0.50;;;;;;;;;;5094507;28;20020;-56
2023/03/14 03:35:02;;;;;;;1.77;0.10;;;;;;;;;;5092692;28;20016;-55
2023/03/14 03:37:29;;;;;;;1.38;0.30;;;;;;;;;;5094130;28;20423;-56
2023/03/14 03:39:55;;;;;;;2.85;0.32;;;;;;;;;;5094326;28;20035;-56
2023/03/14 03:42:20;;;;;;;0.10;0.00;;;;;;;;;;5094481;28;20020;-56
2023/03/14 03:44:47;;;;;;;0.85;0.10;;;;;;;;;;5096364;28;20396;-59
2023/03/14 03:47:12;;;;;;;0.50;0.10;;;;;;;;;;5096509;28;20358;-56
2023/03/14 03:49:38;;;;;;;2.45;0.10;;;;;;;;;;5095393;28;20073;-56
2023/03/14 03:52:03;;;;;;;2.10;0.13;;;;;;;;;;5092991;28;20012;-56
2023/03/14 03:54:29;;;;;;;0.22;0.05;;;;;;;;;;5093987;28;20070;-56
2023/03/14 03:56:55;;;;;;;2.08;0.13;;;;;;;;;;5092946;28;20054;-59
2023/03/14 03:59:20;;;;;;;1.98;0.32;;;;;;;;;;5093751;28;20051;-55
2023/03/14 04:01:46;;;;;;;2.70;0.85;;;;;;;;;;5092282;28;20024;-56
2023/03/14 04:04:11;;;;;;;1.95;0.10;;;;;;;;;;5093637;28;20491;-56
2023/03/14 04:06:37;;;;;;;2.75;0.43;;;;;;;;;;5091908;28;20416;-55
2023/03/14 04:09:02;;;;;;;2.50;0.20;;;;;;;;;;5093777;28;20354;-56
2023/03/14 04:11:28;;;;;;;0.32;0.10;;;;;;;;;;5093763;28;20022;-56
2023/03/14 04:13:53;;;;;;;1.42;0.20;;;;;;;;;;5093329;28;20038;-56
2023/03/14 04:16:23;;;;;;;3.58;0.88;;;;;;;;;;5093223;28;20035;-57
2023/03/14 04:18:48;;;;;;;3.13;0.40;;;;;;;;;;5094062;28;20040;-59
2023/03/14 04:21:14;;;;;;;0.20;0.20;;;;;;;;;;5095595;28;20020;-58
2023/03/14 04:23:40;;;;;;;3.25;0.45;;;;;;;;;;5093715;28;20012;-61
2023/03/14 04:26:05;;;;;;;0.90;0.17;;;;;;;;;;5093489;28;20438;-60
2023/03/14 04:28:31;;;;;;;1.08;0.25;;;;;;;;;;5095481;28;20024;-65
2023/03/14 04:30:56;;;;;;;2.00;0.30;;;;;;;;;;5095178;28;20016;-61
2023/03/14 04:33:21;;;;;;;1.48;0.10;;;;;;;;;;5094595;28;20572;-58
2023/03/14 04:35:47;;;;;;;1.40;0.20;;;;;;;;;;5094430;28;20032;-56
2023/03/14 04:38:13;;;;;;;3.45;0.28;;;;;;;;;;5093112;28;20054;-58
2023/03/14 04:40:39;;;;;;;2.22;0.65;;;;;;;;;;5093425;28;20012;-59
2023/03/14 04:43:04;;;;;;;0.85;0.15;;;;;;;;;;5092507;28;20046;-58
2023/03/14 04:45:30;;;;;;;1.70;0.57;;;;;;;;;;5091829;28;20531;-57
2023/03/14 04:47:57;;;;;;;0.63;0.20;;;;;;;;;;5093356;28;20019;-57
2023/03/14 04:50:22;;;;;;;2.05;0.30;;;;;;;;;;5093141;28;20536;-56
2023/03/14 04:52:48;;;;;;;2.30;0.80;;;;;;;;;;5091861;28;20027;-56
2023/03/14 04:55:13;;;;;;;1.85;0.40;;;;;;;;;;5093127;28;20016;-57
2023/03/14 04:57:38;;;;;;;1.42;0.50;;;;;;;;;;5092781;28;20481;-55
2023/03/14 05:00:07;;;;;;;1.88;0.10;;;;;;;;;;5091714;28;20024;-63
2023/03/14 05:02:33;;;;;;;1.70;0.20;;;;;;;;;;5092804;28;20080;-56
2023/03/14 05:04:58;;;;;;;1.00;0.32;;;;;;;;;;5092564;28;20016;-57
2023/03/14 05:07:24;;;;;;;2.30;0.45;;;;;;;;;;5092671;28;20130;-57
2023/03/14 05:09:49;;;;;;;3.10;0.50;;;;;;;;;;5091986;28;20110;-60
2023/03/14 05:12:15;;;;;;;3.30;0.50;;;;;;;;;;5092594;28;20027;-57
2023/03/14 05:14:40;;;;;;;3.40;0.98;;;;;;;;;;5092426;28;20524;-58
2023/03/14 05:17:06;;;;;;;2.90;0.60;;;;;;;;;;5091354;28;20028;-55
2023/03/14 05:19:31;;;;;;;3.47;0.52;;;;;;;;;;5095412;28;20373;-55
2023/03/14 05:21:57;;;;;;;4.05;0.38;;;;;;;;;;5095408;28;20153;-57
2023/03/14 05:24:22;;;;;;;1.75;0.45;;;;;;;;;;5097658;28;20020;-58
2023/03/14 05:26:48;;;;;;;2.33;0.40;;;;;;;;;;5098078;28;20392;-56
2023/03/14 05:29:13;;;;;;;2.50;0.40;;;;;;;;;;5097648;28;20523;-62
2023/03/14 05:31:39;;;;;;;1.40;0.40;;;;;;;;;;5096383;28;20020;-56
2023/03/14 05:34:04;;;;;;;2.60;0.38;;;;;;;;;;5095208;28;20016;-59
2023/03/14 05:36:30;;;;;;;2.45;0.98;;;;;;;;;;5094791;28;20438;-56
2023/03/14 05:38:55;;;;;;;0.57;0.35;;;;;;;;;;5094982;28;20023;-55
2023/03/14 05:41:21;;;;;;;2.03;0.65;;;;;;;;;;5094925;28;20016;-56
2023/03/14 05:43:46;;;;;;;3.97;0.40;;;;;;;;;;5096212;28;20050;-57
2023/03/14 05:46:12;;;;;;;4.47;0.40;;;;;;;;;;5096592;28;20373;-56
2023/03/14 05:48:37;;;;;;;5.68;0.60;;;;;;;;;;5096242;28;20012;-56
2023/03/14 05:51:03;;;;;;;2.30;0.43;;;;;;;;;;5094681;28;20035;-57
2023/03/14 05:53:29;;;;;;;2.25;0.43;;;;;;;;;;5094241;28;20384;-57
2023/03/14 05:55:54;;;;;;;1.45;0.57;;;;;;;;;;5096083;28;20066;-58
2023/03/14 05:58:20;;;;;;;0.93;0.35;;;;;;;;;;5095196;28;20538;-57
2023/03/14 06:00:46;;;;;;;1.88;0.40;;;;;;;;;;5096033;28;20047;-58
2023/03/14 06:03:11;;;;;;;8.48;0.50;;;;;;;;;;5095713;28;20027;-61
2023/03/14 06:05:37;;;;;;;4.25;0.57;;;;;;;;;;5094813;28;20490;-57
2023/03/14 06:08:02;;;;;;;1.40;0.38;;;;;;;;;;5096207;28;20024;-57
2023/03/14 06:10:28;;;;;;;3.63;0.70;;;;;;;;;;5095058;28;20058;-60
2023/03/14 06:12:53;;;;;;;1.17;0.22;;;;;;;;;;5095391;28;20476;-60
2023/03/14 06:15:19;;;;;;;6.68;0.50;;;;;;;;;;5096583;28;20058;-57
2023/03/14 06:17:44;;;;;;;1.13;0.38;;;;;;;;;;5096585;28;20035;-61
2023/03/14 06:20:10;;;;;;;1.88;0.43;;;;;;;;;;5096826;28;20016;-57
2023/03/14 06:22:36;;;;;;;5.45;0.43;;;;;;;;;;5096350;28;20020;-56
2023/03/14 06:25:01;;;;;;;1.08;0.20;;;;;;;;;;5095402;28;20500;-58
2023/03/14 06:27:27;;;;;;;5.63;1.13;;;;;;;;;;5095199;28;20020;-59
2023/03/14 06:29:52;;;;;;;2.25;0.30;;;;;;;;;;5094885;28;20024;-57
2023/03/14 06:32:18;;;;;;;6.60;1.02;;;;;;;;;;5093645;28;20013;-59
2023/03/14 06:34:44;;;;;;;2.42;1.13;;;;;;;;;;5095138;28;20491;-57
2023/03/14 06:37:10;;;;;;;4.93;0.30;;;;;;;;;;5093471;28;20027;-59
2023/03/14 06:39:35;;;;;;;1.70;0.38;;;;;;;;;;5093359;28;20426;-58
2023/03/14 06:42:00;;;;;;;4.30;0.68;;;;;;;;;;5095077;28;20032;-59
2023/03/14 06:44:26;;;;;;;4.75;0.38;;;;;;;;;;5094604;28;20020;-58
2023/03/14 06:46:51;;;;;;;2.17;0.68;;;;;;;;;;5093441;28;20123;-59
2023/03/14 06:49:17;;;;;;;4.65;1.60;;;;;;;;;;5093146;28;20028;-58
2023/03/14 06:51:42;;;;;;;3.33;1.35;;;;;;;;;;5095436;28;20431;-59
2023/03/14 06:54:08;;;;;;;5.45;0.57;;;;;;;;;;5094640;28;20073;-59
2023/03/14 06:56:33;;;;;;;5.60;1.45;;;;;;;;;;5094576;28;20051;-60
2023/03/14 06:58:59;;;;;;;4.53;0.65;;;;;;;;;;5094405;28;20024;-59
2023/03/14 07:01:25;;;;;;;3.30;0.40;;;;;;;;;;5094286;28;20377;-58
2023/03/14 07:03:51;;;;;;;6.50;0.47;;;;;;;;;;5094470;28;20077;-60
2023/03/14 07:06:16;;;;;;;2.88;0.55;;;;;;;;;;5093841;28;20016;-60
2023/03/14 07:08:42;;;;;;;2.08;0.30;;;;;;;;;;5093966;28;20334;-60
2023/03/14 07:11:07;;;;;;;1.60;0.38;;;;;;;;;;5094513;28;20465;-59
2023/03/14 07:13:33;;;;;;;4.18;0.73;;;;;;;;;;5094265;28;20051;-60
2023/03/14 07:15:58;;;;;;;3.70;0.47;;;;;;;;;;5094142;28;20032;-58
2023/03/14 07:18:24;;;;;;;2.63;0.60;;;;;;;;;;5094283;28;20500;-61
2023/03/14 07:20:49;;;;;;;1.05;0.28;;;;;;;;;;5092272;28;20027;-59
2023/03/14 07:23:15;;;;;;;3.95;0.88;;;;;;;;;;5092199;28;20035;-60
2023/03/14 07:25:40;;;;;;;4.70;1.58;;;;;;;;;;5093568;28;20415;-60
2023/03/14 07:28:06;;;;;;;3.92;0.93;;;;;;;;;;5093444;28;20349;-60
2023/03/14 07:30:32;;;;;;;5.20;0.25;;;;;;;;;;5092145;28;20047;-59
2023/03/14 07:32:58;;;;;;;2.65;0.40;;;;;;;;;;5092030;28;20024;-60
2023/03/14 07:35:23;;;;;;;2.70;0.38;;;;;;;;;;5093710;28;20076;-61
2023/03/14 07:37:48;;;;;;;1.13;0.10;;;;;;;;;;5093670;28;20093;-59
2023/03/14 07:40:14;;;;;;;1.42;0.20;;;;;;;;;;5092969;28;20100;-58
2023/03/14 07:42:42;;;;;;;2.83;0.52;;;;;;;;;;5092202;28;20016;-61
2023/03/14 07:45:08;;;;;;;1.83;0.20;;;;;;;;;;5091874;28;20024;-60
2023/03/14 07:47:33;;;;;;;2.40;0.22;;;;;;;;;;5092938;28;20024;-60
2023/03/14 07:49:59;;;;;;;2.58;0.32;;;;;;;;;;5091662;28;20031;-61
2023/03/14 07:52:24;;;;;;;0.60;0.13;;;;;;;;;;5093919;28;20035;-60
2023/03/14 07:54:50;;;;;;;2.78;0.50;;;;;;;;;;5093580;28;20016;-60
2023/03/14 07:57:16;;;;;;;1.98;0.73;;;;;;;;;;5093312;28;20093;-59
2023/03/14 07:59:42;;;;;;;2.95;0.28;;;;;;;;;;5093278;28;20019;-60
2023/03/14 08:02:11;;;;;;;1.88;0.30;;;;;;;;;;5092961;28;20022;-60
2023/03/14 08:04:37;;;;;;;1.77;0.28;;;;;;;;;;5093441;28;20027;-59
2023/03/14 08:07:03;;;;;;;3.42;0.40;;;;;;;;;;5093729;28;20019;-60
2023/03/14 08:09:28;;;;;;;1.52;0.60;;;;;;;;;;5093627;28;20016;-60
2023/03/14 08:11:53;;;;;;;0.95;0.50;;;;;;;;;;5094018;28;20023;-64
2023/03/14 08:14:19;;;;;;;1.95;0.28;;;;;;;;;;5092690;28;20039;-61
2023/03/14 08:16:44;;;;;;;2.97;0.40;;;;;;;;;;5094072;28;20130;-60
2023/03/14 08:19:10;;;;;;;2.25;0.40;;;;;;;;;;5091188;28;20028;-60
2023/03/14 08:21:36;;;;;;;1.85;0.30;;;;;;;;;;5092561;28;20471;-60
2023/03/14 08:24:02;;;;;;;1.92;0.30;;;;;;;;;;5092483;28;20016;-60
2023/03/14 08:26:27;;;;;;;4.07;0.47;;;;;;;;;;5090891;28;20510;-60
2023/03/14 08:28:52;;;;;;;2.88;0.60;;;;;;;;;;5091053;28;20089;-61
2023/03/14 08:31:18;;;;;;;2.63;0.40;;;;;;;;;;5091763;28;20020;-59
2023/03/14 08:33:44;;;;;;;2.55;0.35;;;;;;;;;;5090677;28;20024;-59
2023/03/14 08:36:09;;;;;;;2.47;0.50;;;;;;;;;;5092121;28;20438;-60
2023/03/14 08:38:36;;;;;;;1.70;0.30;;;;;;;;;;5092525;28;20083;-59
2023/03/14 08:41:02;;;;;;;1.98;0.22;;;;;;;;;;5092465;28;20062;-61
2023/03/14 08:43:28;;;;;;;0.88;0.20;;;;;;;;;;5091396;28;20020;-60
2023/03/14 08:45:53;;;;;;;0.73;0.20;;;;;;;;;;5092595;28;20024;-60
2023/03/14 08:48:19;;;;;;;2.90;0.77;;;;;;;;;;5090644;28;20020;-59
2023/03/14 08:50:45;;;;;;;0.68;0.20;;;;;;;;;;5090526;28;20047;-61
2023/03/14 08:53:10;;;;;;;2.25;0.50;;;;;;;;;;5092040;28;20031;-61
2023/03/14 08:55:36;;;;;;;2.55;0.30;;;;;;;;;;5090560;28;20123;-60
2023/03/14 08:58:01;;;;;;;5.80;1.58;;;;;;;;;;5091847;28;20441;-60
2023/03/14 09:00:26;;;;;;;0.63;0.17;;;;;;;;;;5092161;28;20027;-60
2023/03/14 09:02:52;;;;;;;1.27;0.20;;;;;;;;;;5090836;28;20031;-65
2023/03/14 09:05:18;;;;;;;1.08;0.20;;;;;;;;;;5090507;28;20105;-60
2023/03/14 09:07:43;;;;;;;2.78;0.20;;;;;;;;;;5090551;28;20580;-62
2023/03/14 09:10:09;;;;;;;1.05;0.13;;;;;;;;;;5090327;28;20107;-60
2023/03/14 09:12:35;;;;;;;4.78;1.48;;;;;;;;;;5092225;28;20016;-61
2023/03/14 09:15:00;;;;;;;2.00;0.50;;;;;;;;;;5091491;28;20027;-62
2023/03/14 09:17:26;;;;;;;3.70;0.60;;;;;;;;;;5092055;28;20024;-61
2023/03/14 09:19:51;;;;;;;1.02;0.20;;;;;;;;;;5092733;28;20464;-61
2023/03/14 09:22:17;;;;;;;1.55;0.20;;;;;;;;;;5091989;28;20013;-61
2023/03/14 09:24:42;;;;;;;0.85;0.32;;;;;;;;;;5091795;28;20499;-61
2023/03/14 09:27:08;;;;;;;0.93;0.17;;;;;;;;;;5091756;28;20016;-61
2023/03/14 09:29:34;;;;;;;0.60;0.10;;;;;;;;;;5091737;28;20081;-61
2023/03/14 09:31:59;;;;;;;2.15;0.17;;;;;;;;;;5090418;28;20024;-60
2023/03/14 09:34:25;;;;;;;1.33;0.30;;;;;;;;;;5091570;28;20024;-63
2023/03/14 09:36:50;;;;;;;0.77;0.15;;;;;;;;;;5091589;28;20032;-59
2023/03/14 09:39:16;;;;;;;0.20;0.13;;;;;;;;;;5091523;28;20016;-60
2023/03/14 09:41:50;;;;;;;2.28;0.80;;;;;;;;;;5090533;28;20020;-62
2023/03/14 09:44:21;;;;;;;1.08;0.28;;;;;;;;;;5090371;28;20059;-61
2023/03/14 09:46:49;;;;;;;0.75;0.50;;;;;;;;;;5091456;28;20023;-61
2023/03/14 09:49:23;;;;;;;1.33;0.28;;;;;;;;;;5091210;28;20380;-61
2023/03/14 09:51:50;;;;;;;3.67;0.80;;;;;;;;;;5091487;28;20376;-62
2023/03/14 09:54:25;;;;;;;0.82;0.43;;;;;;;;;;5091238;28;20263;-61
2023/03/14 09:56:51;;;;;;;2.03;0.70;;;;;;;;;;5091651;28;20396;-61
2023/03/14 09:59:16;;;;;;;1.10;0.30;;;;;;;;;;5091014;28;20020;-60
2023/03/14 10:01:42;;;;;;;0.73;0.30;;;;;;;;;;5091493;28;20012;-62
2023/03/14 10:04:13;;;;;;;1.63;1.10;;;;;;;;;;5093476;28;20017;-62
2023/03/14 10:06:38;;;;;;;2.53;0.60;;;;;;;;;;5094548;28;20041;-62
2023/03/14 10:09:05;;;;;;;1.25;0.25;;;;;;;;;;5095021;28;20136;-62
2023/03/14 10:11:31;;;;;;;1.60;0.45;;;;;;;;;;5093420;28;20380;-62
2023/03/14 10:14:04;;;;;;;6.63;2.88;;;;;;;;;;5094734;28;20016;-62
2023/03/14 10:16:31;;;;;;;4.18;0.68;;;;;;;;;;5094484;28;20408;-61
2023/03/14 10:19:16;;;;;;;0.28;0.10;;;;;;;;;;5095515;28;20479;-61
2023/03/14 10:21:49;;;;;;;0.88;0.52;;;;;;;;;;5095831;28;20444;-63
2023/03/14 10:24:28;;;;;;;4.05;0.30;;;;;;;;;;5094611;28;20088;-63
2023/03/14 10:27:05;;;;;;;0.90;0.10;;;;;;;;;;5093284;28;20020;-62
2023/03/14 10:29:31;;;;;;;1.48;0.63;;;;;;;;;;5094688;28;20085;-62
2023/03/14 10:32:01;;;;;;;1.33;0.43;;;;;;;;;;5093725;28;20016;-61
2023/03/14 10:34:31;;;;;;;0.55;0.20;;;;;;;;;;5092923;28;20020;-61
2023/03/14 10:36:58;;;;;;;0.68;0.30;;;;;;;;;;5092182;28;20458;-62
2023/03/14 10:39:25;;;;;;;1.80;0.65;;;;;;;;;;5094076;28;20024;-61
2023/03/14 10:41:56;;;;;;;0.73;0.30;;;;;;;;;;5093697;28;20537;-62
2023/03/14 10:44:23;;;;;;;3.42;0.82;;;;;;;;;;5093712;28;20038;-62
2023/03/14 10:46:56;;;;;;;0.98;0.40;;;;;;;;;;5093618;28;20020;-63
2023/03/14 10:49:27;;;;;;;1.30;0.40;;;;;;;;;;5091526;28;20443;-63
2023/03/14 10:51:53;;;;;;;0.98;0.30;;;;;;;;;;5093683;28;20204;-64
2023/03/14 10:54:23;;;;;;;0.98;0.22;;;;;;;;;;5093474;28;20058;-62
2023/03/14 10:56:59;;;;;;;1.25;0.43;;;;;;;;;;5093175;28;20135;-62
2023/03/14 10:59:27;;;;;;;0.73;0.10;;;;;;;;;;5093914;28;20024;-62
2023/03/14 11:01:57;;;;;;;1.95;0.20;;;;;;;;;;5093267;28;20468;-63
2023/03/14 11:04:25;;;;;;;0.55;0.15;;;;;;;;;;5092325;28;20016;-63
2023/03/14 11:07:07;;;;;;;0.70;0.20;;;;;;;;;;5091832;28;20459;-62
2023/03/14 11:09:35;;;;;;;2.47;0.50;;;;;;;;;;5092368;28;20392;-63
2023/03/14 11:12:13;;;;;;;2.88;1.08;;;;;;;;;;5093544;28;20496;-63
2023/03/14 11:14:43;;;;;;;1.63;0.25;;;;;;;;;;5092207;28;20019;-62
2023/03/14 11:17:28;;;;;;;3.75;0.40;;;;;;;;;;5091764;28;20027;-62
2023/03/14 11:20:13;;;;;;;0.85;0.20;;;;;;;;;;5091817;28;20060;-61
2023/03/14 11:22:46;;;;;;;0.77;0.30;;;;;;;;;;5093499;28;20042;-63
2023/03/14 11:25:20;;;;;;;1.23;0.30;;;;;;;;;;5093285;28;20020;-63
2023/03/14 11:27:53;;;;;;;10.70;5.95;;;;;;;;;;5093049;28;20024;-63
2023/03/14 11:30:25;;;;;;;1.15;0.40;;;;;;;;;;5094094;28;20035;-62
2023/03/14 11:32:51;;;;;;;0.20;0.20;;;;;;;;;;5091984;28;20380;-62
2023/03/14 11:35:25;;;;;;;1.27;0.20;;;;;;;;;;5093243;28;20107;-63
2023/03/14 11:38:11;;;;;;;1.25;0.15;;;;;;;;;;5092579;28;20043;-62
2023/03/14 11:40:38;;;;;;;2.00;0.40;;;;;;;;;;5076980;28;20024;-62
2023/03/14 11:43:11;;;;;;;9.27;5.28;;;;;;;;;;5092970;28;20019;-61
2023/03/14 11:45:39;;;;;;;0.35;0.20;;;;;;;;;;5092954;28;20099;-60
2023/03/14 11:48:14;;;;;;;3.50;0.28;;;;;;;;;;5093375;28;20021;-63
2023/03/14 11:50:40;;;;;;;1.23;0.43;;;;;;;;;;5094384;28;20032;-63
2023/03/14 11:53:09;;;;;;;1.70;0.30;;;;;;;;;;5092034;28;20438;-62
2023/03/14 11:55:35;;;;;;;2.95;0.20;;;;;;;;;;5091195;28;20526;-61
2023/03/14 11:58:22;;;;;;;0.85;0.20;;;;;;;;;;5092906;28;20028;-61
2023/03/14 12:00:48;;;;;;;2.03;0.05;;;;;;;;;;5091538;28;20023;-63
2023/03/14 12:03:34;;;;;;;0.80;0.10;;;;;;;;;;5092658;28;20473;-60
2023/03/14 12:06:00;;;;;;;4.18;1.67;;;;;;;;;;5090549;28;20499;-61
2023/03/14 12:08:25;;;;;;;3.83;0.65;;;;;;;;;;5092790;28;20019;-61
2023/03/14 12:10:58;;;;;;;2.90;0.30;;;;;;;;;;5093316;28;20038;-61
2023/03/14 12:13:28;;;;;;;2.35;0.20;;;;;;;;;;5093097;28;20095;-60
2023/03/14 12:16:00;;;;;;;16.23;9.35;;;;;;;;;;5091697;28;20365;-61
2023/03/14 12:18:28;;;;;;;1.40;0.90;;;;;;;;;;5092728;28;20093;-61
2023/03/14 12:20:55;;;;;;;8.23;6.97;;;;;;;;;;5093325;28;20030;-60
2023/03/14 12:23:21;;;;;;;1.50;0.70;;;;;;;;;;5092295;28;20020;-61
2023/03/14 12:25:47;;;;;;;0.85;0.30;;;;;;;;;;5092635;28;20559;-62
2023/03/14 12:28:19;;;;;;;0.40;0.13;;;;;;;;;;5092817;28;20091;-60
2023/03/14 12:30:45;;;;;;;2.90;0.70;;;;;;;;;;5093025;28;20490;-61
2023/03/14 12:33:10;;;;;;;2.20;0.30;;;;;;;;;;5092667;28;20016;-60
2023/03/14 12:35:40;;;;;;;0.63;0.50;;;;;;;;;;5092660;28;20020;-61
2023/03/14 12:38:28;;;;;;;3.17;0.30;;;;;;;;;;5092995;28;20028;-61
2023/03/14 12:41:11;;;;;;;1.60;0.30;;;;;;;;;;5083875;28;20043;-62
2023/03/14 12:43:37;;;;;;;1.33;0.13;;;;;;;;;;5092401;28;20016;-60
2023/03/14 12:46:09;;;;;;;1.85;0.20;;;;;;;;;;5092643;28;20016;-60
2023/03/14 12:48:34;;;;;;;1.27;0.40;;;;;;;;;;5092476;28;20024;-59
2023/03/14 12:51:04;;;;;;;2.80;0.98;;;;;;;;;;5092131;28;20026;-62
2023/03/14 12:53:35;;;;;;;4.63;2.35;;;;;;;;;;5090829;28;20540;-61
2023/03/14 12:56:12;;;;;;;3.10;1.38;;;;;;;;;;5092255;28;20177;-60
2023/03/14 12:58:47;;;;;;;1.75;0.63;;;;;;;;;;5091054;28;20016;-61
2023/03/14 13:01:17;;;;;;;2.38;1.15;;;;;;;;;;5092431;28;20020;-61
2023/03/14 13:03:46;;;;;;;8.63;1.38;;;;;;;;;;5091320;28;20020;-61
2023/03/14 13:06:12;;;;;;;2.67;0.45;;;;;;;;;;5093150;28;20028;-60
2023/03/14 13:08:44;;;;;;;5.60;1.30;;;;;;;;;;5093584;28;20031;-61
2023/03/14 13:11:18;;;;;;;5.32;0.80;;;;;;;;;;5093226;28;20043;-61
2023/03/14 13:13:51;;;;;;;3.22;1.70;;;;;;;;;;5092695;28;20488;-60
2023/03/14 13:16:19;;;;;;;6.00;2.10;;;;;;;;;;5092501;28;20024;-60
2023/03/14 13:18:46;;;;;;;1.42;0.52;;;;;;;;;;5092803;28;20035;-61
2023/03/14 13:21:14;;;;;;;3.67;0.75;;;;;;;;;;5093375;28;20099;-59
2023/03/14 13:23:40;;;;;;;3.33;0.70;;;;;;;;;;5091047;28;20456;-61
2023/03/14 13:26:11;;;;;;;1.67;0.45;;;;;;;;;;5091678;28;20028;-61
2023/03/14 13:28:36;;;;;;;4.82;0.50;;;;;;;;;;5092574;28;20028;-62
2023/03/14 13:31:03;;;;;;;6.95;0.70;;;;;;;;;;5091979;28;20035;-62
2023/03/14 13:33:28;;;;;;;6.18;0.60;;;;;;;;;;5090777;28;20332;-62
2023/03/14 13:35:56;;;;;;;4.15;1.98;;;;;;;;;;5092795;28;20107;-60
2023/03/14 13:38:23;;;;;;;2.28;0.47;;;;;;;;;;5092015;28;20026;-62
2023/03/14 13:40:49;;;;;;;2.22;0.30;;;;;;;;;;5095594;28;20024;-63
2023/03/14 13:43:16;;;;;;;4.85;1.05;;;;;;;;;;5095685;28;20024;-62
2023/03/14 13:45:49;;;;;;;2.75;0.60;;;;;;;;;;5098311;28;20024;-62
2023/03/14 13:48:16;;;;;;;8.88;0.73;;;;;;;;;;5096389;28;20055;-61
2023/03/14 13:50:52;;;;;;;3.22;0.63;;;;;;;;;;5094908;28;20020;-64
2023/03/14 13:53:18;;;;;;;1.95;0.68;;;;;;;;;;5096054;28;20089;-62
2023/03/14 13:55:43;;;;;;;1.45;0.60;;;;;;;;;;5094279;28;20056;-61
2023/03/14 13:58:13;;;;;;;3.83;0.60;;;;;;;;;;5094473;28;20018;-61
2023/03/14 14:00:38;;;;;;;3.03;0.50;;;;;;;;;;5094215;28;20031;-60
2023/03/14 14:03:04;;;;;;;1.63;0.50;;;;;;;;;;5095217;28;20016;-62
2023/03/14 14:05:31;;;;;;;1.42;0.50;;;;;;;;;;5095687;28;20071;-62
2023/03/14 14:07:56;;;;;;;1.23;0.70;;;;;;;;;;5095583;28;20054;-62
2023/03/14 14:10:22;;;;;;;2.55;1.50;;;;;;;;;;5095261;28;20077;-60
2023/03/14 14:13:01;;;;;;;5.93;0.60;;;;;;;;;;5095974;28;20028;-62
2023/03/14 14:15:27;;;;;;;0.93;0.55;;;;;;;;;;5094047;28;20016;-61
2023/03/14 14:17:57;;;;;;;1.40;0.50;;;;;;;;;;5094648;28;20038;-61
2023/03/14 14:20:23;;;;;;;3.95;0.65;;;;;;;;;;5095982;28;20027;-61
2023/03/14 14:22:49;;;;;;;1.58;0.68;;;;;;;;;;5094244;28;20020;-61
2023/03/14 14:25:15;;;;;;;1.40;0.52;;;;;;;;;;5093985;28;20503;-61
2023/03/14 14:27:46;;;;;;;2.22;0.50;;;;;;;;;;5095501;28;20024;-61
2023/03/14 14:30:18;;;;;;;3.22;0.43;;;;;;;;;;5093839;28;20030;-63
2023/03/14 14:32:43;;;;;;;2.30;0.90;;;;;;;;;;5093484;28;20469;-60
2023/03/14 14:35:10;;;;;;;1.95;0.45;;;;;;;;;;5093414;28;20108;-61
2023/03/14 14:37:43;;;;;;;0.98;0.40;;;;;;;;;;5093237;28;20035;-63
2023/03/14 14:40:09;;;;;;;1.55;0.50;;;;;;;;;;5093516;28;20023;-63
2023/03/14 14:42:39;;;;;;;2.42;0.43;;;;;;;;;;5094580;28;20016;-61
2023/03/14 14:45:06;;;;;;;1.50;0.30;;;;;;;;;;5093443;28;20420;-62